If you wish to contribute or participate in the discussions about articles you are invited to join SKYbrary as a registered user

 Actions

Vereeniging Airport

From SKYbrary Wiki

FAVV
Airport
ICAO: FAVV
Summary
Name Vereeniging Airport
Region Africa
Territory South Africa ZA.gif
Location , Gauteng
Serving Vereeniging
Elevation 1,477.061 m
4,846 ft
4,846 ft1,477.061 m
Coordinates 26° 33' 58.94" S, 27° 57' 38.72" E
Runways
Designator Length Width Surface ROPS
3/21 1605 m5,265.748 ft
22 m72.178 ft
ASP /
15/33 1135 m3,723.753 ft
16 m52.493 ft
ASP /


METAR
Observation FAVV 171200Z AUTO 11006KT //// // ////// 31/01 Q1023
Station Vereeniging
Date/Time 17 October 2019 12:00:00
Wind direction 110°
Wind speed 06 kts
Lowest cloud amount n/a
Temperature 31°C
Dew point 1°C
Humidity 14%
QNH 1023 hPa
Weather condition n/a